• Join FlightAware (Why Join?)
  • Login
  • US Flag 
07:12AM EDT


 

Airport Tracker/Info


-or-


 

Live Flight TrackerFlight Track Log ✈ SWA542 ✈ 28-Apr-2013 ✈ KLAS - KSEA

Flight Track Log - Related Links

Times and Time Zones

All times are in EDT time to prevent confusion due to time zone crossing. See the SWA542 flight status page for this flight to view local times or setup timezone preferences in your user account.

Time Position Orientation Groundspeed Altitude Reporting Facility
EDT Latitude Longitude Course Direction KTS MPH feet Rate Location/Type
06:24PM 36.0758 -115.1764 269° West 154 177 3,500  Level Los Angeles Center
06:25PM 36.0753 -115.2136 269° West 197 227 4,400 2,040 Climbing Los Angeles Center
06:26PM 36.0483 -115.2661 238° Southwest 241 277 6,600 1,620 Climbing Los Angeles Center
06:27PM 35.9767 -115.2992 200° South 267 307 7,700 2,040 Climbing Los Angeles Center
06:28PM 35.9211 -115.3628 223° Southwest 269 310 10,900 1,560 Climbing Los Angeles Center
06:29PM 35.8878 -115.4664 248° West 281 323 11,000  Climbing Los Angeles Center
06:30PM 35.8886 -115.5664 271° West 282 325 11,000 300 Level Los Angeles Center
06:31PM 35.8906 -115.6706 271° West 307 353 11,700 2,460 Climbing Los Angeles Center
06:32PM 35.8928 -115.7978 271° West 338 389 16,100 3,300 Climbing Los Angeles Center
06:33PM 35.8947 -115.9178 271° West 353 406 18,600 2,280 Climbing Los Angeles Center
06:34PM 35.9494 -116.0319 301° West 368 423 20,900 1,980 Climbing Los Angeles Center
06:35PM 36.0317 -116.1256 317° Northwest 400 460 23,200 2,220 Climbing Los Angeles Center
06:36PM 36.1358 -116.2467 317° Northwest 408 470 26,000 2,220 Climbing Los Angeles Center
06:37PM 36.2225 -116.3458 317° Northwest 420 483 27,900 1,680 Climbing Los Angeles Center
06:38PM 36.3108 -116.4467 317° Northwest 429 494 29,500 1,740 Climbing Los Angeles Center
06:39PM 36.4003 -116.5517 317° Northwest 439 505 31,500 1,800 Climbing Los Angeles Center
06:41PM 36.4869 -116.6550 316° Northwest 436 502 33,300 1,560 Climbing Los Angeles Center
06:42PM 36.5889 -116.7683 318° Northwest 435 501 34,800 1,320 Climbing Los Angeles Center
06:43PM 36.6944 -116.8444 330° Northwest 438 504 36,100 1,440 Climbing Los Angeles Center
06:44PM 36.7975 -116.9236 328° Northwest 434 499 37,800 900 Climbing Los Angeles Center
06:45PM 36.8983 -117.0014 328° Northwest 426 490 38,000 60 Climbing Los Angeles Center
06:46PM 37.0208 -117.0931 329° Northwest 426 490 38,000  Level Los Angeles Center
06:47PM 37.1214 -117.1733 328° Northwest 426 490 38,000  Level Oakland Center
06:48PM 37.2303 -117.2311 337° Northwest 424 488 38,000  Level Oakland Center
06:49PM 37.3392 -117.2917 336° Northwest 426 490 38,000  Level Oakland Center
06:50PM 37.4478 -117.3503 337° Northwest 424 488 38,000  Level Oakland Center
06:51PM 37.5558 -117.4094 337° Northwest 422 486 38,000  Level Oakland Center
06:52PM 37.6642 -117.4700 336° Northwest 422 486 38,000  Level Oakland Center
06:53PM 37.7728 -117.5289 337° Northwest 422 486 38,000  Level Oakland Center
06:54PM 37.8803 -117.5892 336° Northwest 418 481 38,000  Level Oakland Center
06:55PM 37.9881 -117.6497 336° Northwest 419 482 38,000  Level Oakland Center
06:56PM 38.0950 -117.7086 337° Northwest 416 479 38,000  Level Oakland Center
06:57PM 38.2025 -117.7686 336° Northwest 417 480 38,000  Level Oakland Center
06:58PM 38.3086 -117.8289 336° Northwest 416 479 38,000  Level Oakland Center
06:59PM 38.4367 -117.9008 336° Northwest 417 480 38,000  Level Oakland Center
07:00PM 38.5439 -117.9608 336° Northwest 418 481 38,000  Level Oakland Center
07:01PM 38.6508 -118.0225 336° Northwest 420 483 38,000  Level Oakland Center
07:02PM 38.7531 -118.0806 336° Northwest 416 479 38,000  Level Oakland Center
07:03PM 38.8581 -118.1414 336° Northwest 415 478 38,000  Level Oakland Center
07:04PM 38.9639 -118.2019 336° Northwest 416 479 38,000  Level Oakland Center
07:05PM 39.0678 -118.2614 336° Northwest 412 474 38,000  Level Oakland Center
07:06PM 39.1714 -118.3225 335° Northwest 411 473 38,000  Level Oakland Center
07:07PM 39.2942 -118.3922 336° Northwest 405 466 38,000  Level Oakland Center
07:08PM 39.3814 -118.4431 336° Northwest 402 463 38,000  Level Oakland Center
07:09PM 39.4947 -118.5097 336° Northwest 401 461 38,000  Level Oakland Center
07:10PM 39.5947 -118.5689 335° Northwest 401 461 38,000  Level Oakland Center
07:11PM 39.6953 -118.6286 335° Northwest 401 461 38,000  Level Oakland Center
07:12PM 39.7967 -118.6892 335° Northwest 402 463 38,000  Level Oakland Center
07:13PM 39.9197 -118.7617 336° Northwest 404 465 38,000  Level Oakland Center
07:14PM 40.0222 -118.8233 335° Northwest 406 467 38,000  Level Oakland Center
07:15PM 40.1244 -118.8844 335° Northwest 405 466 38,000  Level Oakland Center
07:16PM 40.2256 -118.9456 335° Northwest 402 463 38,000  Level Oakland Center
07:17PM 40.3275 -119.0078 335° Northwest 405 466 38,000  Level Oakland Center
07:18PM 40.4292 -119.0689 335° Northwest 403 464 38,000  Level Oakland Center
07:19PM 40.5300 -119.1292 336° Northwest 400 460 38,000  Level Oakland Center
07:20PM 40.6306 -119.1914 335° Northwest 399 459 38,000  Level Oakland Center
07:21PM 40.7308 -119.2519 335° Northwest 398 458 38,000  Level Oakland Center
07:23PM 40.8511 -119.3233 336° Northwest 406 467 38,000  Level Oakland Center
07:24PM 40.9467 -119.3825 335° Northwest 400 460 38,000  Level Oakland Center
07:25PM 41.0581 -119.4533 334° Northwest 397 457 38,000  Level Oakland Center
07:26PM 41.1472 -119.5081 335° Northwest 397 457 38,000  Level Oakland Center
07:27PM 41.2472 -119.5694 335° Northwest 396 456 38,000  Level Oakland Center
07:28PM 41.3450 -119.6314 335° Northwest 392 451 38,000  Level Oakland Center
07:29PM 41.4533 -119.6986 335° Northwest 388 447 38,000  Level Oakland Center
07:30PM 41.5589 -119.7650 335° Northwest 387 445 38,000  Level Oakland Center
07:31PM 41.6556 -119.8253 335° Northwest 385 443 38,000  Level Oakland Center
07:32PM 41.7519 -119.8856 335° Northwest 383 441 38,000  Level Oakland Center
07:33PM 41.8497 -119.9464 335° Northwest 385 443 38,000  Level Oakland Center
07:34PM 41.9456 -120.0064 335° Northwest 382 440 38,000  Level Oakland Center
07:35PM 42.0314 -120.0600 335° Northwest 383 441 38,000  Level Salt Lake Center
07:35PM 42.0614 -120.0806 333° Northwest 381 438 38,000  Level Seattle Center
07:36PM 42.1575 -120.1392 336° Northwest 382 440 38,000  Level Seattle Center
07:37PM 42.2539 -120.2025 334° Northwest 384 442 38,000  Level Seattle Center
07:38PM 42.3500 -120.2639 335° Northwest 382 440 38,000  Level Seattle Center
07:39PM 42.4464 -120.3258 335° Northwest 384 442 38,000  Level Seattle Center
07:40PM 42.5419 -120.3886 334° Northwest 383 441 38,000  Level Seattle Center
07:41PM 42.6392 -120.4503 335° Northwest 384 442 38,000  Level Seattle Center
07:42PM 42.7356 -120.5128 335° Northwest 385 443 38,000  Level Seattle Center
07:43PM 42.8486 -120.5881 334° Northwest 381 438 38,000  Level Seattle Center
07:44PM 42.9439 -120.6503 334° Northwest 380 437 38,000  Level Seattle Center
07:45PM 43.0408 -120.7136 334° Northwest 384 442 38,000  Level Seattle Center
07:46PM 43.1361 -120.7758 335° Northwest 382 440 38,000  Level Seattle Center
07:47PM 43.2308 -120.8381 334° Northwest 379 436 38,000  Level Seattle Center
07:48PM 43.3264 -120.9017 334° Northwest 381 438 38,000  Level Seattle Center
07:49PM 43.4225 -120.9653 334° Northwest 383 441 38,000  Level Seattle Center
07:50PM 43.5172 -121.0294 334° Northwest 382 440 38,000  Level Seattle Center
07:51PM 43.6136 -121.0919 335° Northwest 381 438 38,000  Level Seattle Center
07:52PM 43.7092 -121.1578 334° Northwest 384 442 38,000  Level Seattle Center
07:53PM 43.8064 -121.2244 334° Northwest 389 448 38,000  Level Seattle Center
07:54PM 43.9053 -121.2900 334° Northwest 390 449 38,000  Level Seattle Center
07:55PM 44.0031 -121.3597 333° Northwest 394 453 38,000  Level Seattle Center
07:56PM 44.1006 -121.4261 334° Northwest 391 450 38,000  Level Seattle Center
07:57PM 44.1972 -121.4925 334° Northwest 388 447 38,000  Level Seattle Center
07:58PM 44.2925 -121.5581 334° Northwest 383 441 38,000  Level Seattle Center
07:59PM 44.4086 -121.6378 334° Northwest 385 443 38,000  Level Seattle Center
08:00PM 44.5042 -121.7033 334° Northwest 384 442 38,000  Level Seattle Center
08:01PM 44.6014 -121.7700 334° Northwest 387 445 38,000  Level Seattle Center
08:02PM 44.6981 -121.8394 333° Northwest 389 448 38,000  Level Seattle Center
08:03PM 44.7961 -121.9081 334° Northwest 394 453 38,000  Level Seattle Center
08:04PM 44.8944 -121.9772 334° Northwest 392 451 38,000  Level Seattle Center
08:05PM 44.9903 -122.0467 333° Northwest 390 449 38,000  Level Seattle Center
08:06PM 45.0869 -122.1156 333° Northwest 390 449 38,000  Level Seattle Center
08:07PM 45.1844 -122.1839 334° Northwest 392 451 38,000  Level Seattle Center
08:08PM 45.2794 -122.2528 333° Northwest 390 449 38,000  Level Seattle Center
08:09PM 45.3753 -122.3211 333° Northwest 388 447 38,000  Level Seattle Center
08:10PM 45.4697 -122.3900 333° Northwest 386 444 38,000  Level Seattle Center
08:11PM 45.5656 -122.4592 333° Northwest 387 445 38,000  Level Seattle Center
08:12PM 45.6628 -122.5286 333° Northwest 391 450 38,000 -540 Level Seattle Center
08:13PM 45.7594 -122.5925 335° Northwest 388 447 37,000 -1,140 Descending Seattle Center
08:14PM 45.8844 -122.6247 350° North 382 440 35,800 -1,440 Descending Seattle Center
08:15PM 45.9844 -122.6525 349° North 371 427 34,100 -1,740 Descending Seattle Center
08:16PM 46.0839 -122.6764 351° North 364 419 32,400 -1,740 Descending Seattle Center
08:18PM 46.1844 -122.7017 350° North 368 423 30,700 -1,620 Descending Seattle Center
08:19PM 46.2739 -122.7236 350° North 355 409 29,200 -2,400 Descending Seattle Center
08:20PM 46.3781 -122.7106 North 383 441 25,900 -2,580 Descending Seattle Center
08:21PM 46.4822 -122.6933 North 381 438 24,000 -1,920 Descending Seattle Center
08:22PM 46.5806 -122.6797 North 363 418 22,100 -2,040 Descending Seattle Center
08:22PM 46.6681 -122.6656 North 355 409 20,400 -2,100 Descending Seattle Center
08:23PM 46.6983 -122.6628 North 359 413 20,000 -1,020 Descending Seattle Center
08:23PM 46.7625 -122.6536 North 362 417 19,500 -900 Descending Seattle Center
08:24PM 46.7978 -122.6472 North 362 417 19,100 -1,440 Descending Seattle Center
08:25PM 46.8953 -122.6311 North 357 411 17,600 -1,680 Descending Seattle Center
08:26PM 46.9911 -122.6164 North 349 402 15,800 -1,920 Descending Seattle Center
08:26PM 47.0594 -122.6069 North 337 388 14,400 -1,800 Descending Seattle Center
08:27PM 47.0828 -122.6031 North 335 386 14,000 -1,680 Descending Seattle Center
08:27PM 47.1511 -122.5931 North 330 380 12,700 -1,800 Descending Seattle Center
08:28PM 47.1722 -122.5892 North 326 375 12,200 -2,400 Descending Seattle Center
08:28PM 47.2389 -122.5617 16° North 342 394 10,300 -2,100 Descending Seattle Center
08:29PM 47.2556 -122.5372 45° Northeast 348 400 10,100 -600 Descending Seattle Center
08:29PM 47.3147 -122.4844 31° Northeast 325 374 9,700 -720 Descending Seattle Center
08:30PM 47.3319 -122.4864 356° North 302 348 9,400 -1,200 Descending Seattle Center
08:30PM 47.3997 -122.4772 North 270 311 8,400 -1,140 Descending Seattle Center
08:31PM 47.4094 -122.4767 North 281 323 8,300 -1,560 Descending Seattle Center
08:32PM 47.4806 -122.4722 North 243 280 6,700 -1,680 Descending Seattle Center
08:33PM 47.5594 -122.4617 North 246 283 5,000 -1,500 Descending Seattle Center
08:33PM 47.5983 -122.4108 41° Northeast 238 274 3,800 -900 Descending Seattle Center
08:35PM 47.5700 -122.3283 117° Southeast 192 221 3,200 -780 Descending Seattle Center
08:36PM 47.5308 -122.3100 162° South 172 198 2,200 -1,080 Descending Seattle Center
08:37PM 47.4914 -122.3122 182° South 136 157 1,200 -840 Descending Seattle Center
08:38PM 47.4472 -122.3128 180° South 132 152 400 -720 Descending Seattle Center
08:40PM 47.4499 -122.3118 175° South  Level Estimated